Time;durP1;ratioP1;P1;durP2;ratioP2;P2;SDS_P1;SDS_P2;PMS_P1;PMS_P2;Temp;Humidity;BMP_temperature;BMP_pressure;BME280_temperature;BME280_humidity;BME280_pressure;Samples;Min_cycle;Max_cycle;Signal;HPM_P1;HPM_P2
2022/06/22 00:01:59;;;;;;;3.20;1.17;;;12.00;99.90;;;;;;5030351;28;20040;-72
2022/06/22 00:04:47;;;;;;;4.28;1.20;;;12.00;99.90;;;;;;5029155;28;20097;-73
2022/06/22 00:07:31;;;;;;;2.80;1.17;;;12.10;99.90;;;;;;5029905;28;20028;-75
2022/06/22 00:10:24;;;;;;;3.67;1.42;;;12.20;99.90;;;;;;5027923;28;20022;-74
2022/06/22 00:12:56;;;;;;;4.03;1.13;;;12.30;99.90;;;;;;5029657;28;20022;-72
2022/06/22 00:15:32;;;;;;;;;;;12.40;99.00;;;;;;5032856;28;20033;-73
2022/06/22 00:18:01;;;;;;;3.03;1.25;;;12.50;99.10;;;;;;5030073;28;19972;-73
2022/06/22 00:20:32;;;;;;;2.13;1.05;;;12.60;99.10;;;;;;5030936;28;20100;-72
2022/06/22 00:23:14;;;;;;;4.90;1.30;;;12.60;98.70;;;;;;5028438;28;20045;-70
2022/06/22 00:25:43;;;;;;;2.55;1.17;;;12.60;98.50;;;;;;5028533;28;20029;-73
2022/06/22 00:28:25;;;;;;;3.88;1.33;;;12.80;98.50;;;;;;5030857;28;20065;-72
2022/06/22 00:31:19;;;;;;;3.05;1.17;;;12.80;98.50;;;;;;5028406;28;20537;-71
2022/06/22 00:34:09;;;;;;;2.75;1.23;;;13.00;98.20;;;;;;5030471;28;20041;-73
2022/06/22 00:37:03;;;;;;;4.00;1.35;;;13.10;98.30;;;;;;5029143;28;20029;-74
2022/06/22 00:39:30;;;;;;;1.70;1.08;;;13.10;97.60;;;;;;5028846;28;20371;-71
2022/06/22 00:42:14;;;;;;;4.05;1.70;;;13.20;97.30;;;;;;5027408;28;20018;-70
2022/06/22 00:45:13;;;;;;;1.48;1.13;;;13.30;96.80;;;;;;5027567;28;20114;-70
2022/06/22 00:48:23;;;;;;;4.47;1.00;;;13.40;97.20;;;;;;5027447;28;20064;-69
2022/06/22 00:51:01;;;;;;;3.53;1.00;;;13.40;96.70;;;;;;5029751;28;20029;-71
2022/06/22 00:53:31;;;;;;;3.17;1.10;;;13.50;96.80;;;;;;5026765;28;20048;-70
2022/06/22 00:56:08;;;;;;;4.15;1.23;;;13.50;96.90;;;;;;5029898;28;20025;-72
2022/06/22 00:59:06;;;;;;;2.22;1.10;;;13.60;96.70;;;;;;5030137;28;20018;-72
2022/06/22 01:01:52;;;;;;;1.58;0.88;;;13.70;96.70;;;;;;5032704;28;20497;-72
2022/06/22 01:04:25;;;;;;;6.55;1.52;;;13.80;96.60;;;;;;5046563;28;20053;-72
2022/06/22 01:07:03;;;;;;;2.50;1.02;;;13.90;96.50;;;;;;5033417;28;20056;-71
2022/06/22 01:09:57;;;;;;;7.32;1.40;;;13.90;96.10;;;;;;5032271;28;20514;-71
2022/06/22 01:12:29;;;;;;;2.33;0.90;;;14.00;95.80;;;;;;5033976;28;20021;-72
2022/06/22 01:15:22;;;;;;;4.20;0.82;;;14.10;96.00;;;;;;5033515;28;20025;-74
2022/06/22 01:17:50;;;;;;;3.63;0.95;;;14.20;95.60;;;;;;5032275;28;20026;-72
2022/06/22 01:20:40;;;;;;;1.63;0.85;;;14.30;95.60;;;;;;5033536;28;20013;-72
2022/06/22 01:24:01;;;;;;;5.20;1.02;;;14.40;95.10;;;;;;5030799;28;20025;-70
2022/06/22 01:27:08;;;;;;;1.73;0.60;;;14.50;94.60;;;;;;5008758;28;20025;-73
2022/06/22 01:29:45;;;;;;;3.88;2.45;;;14.70;94.80;;;;;;5033583;28;20121;-74
2022/06/22 01:32:20;;;;;;;2.83;1.08;;;14.80;94.60;;;;;;5033683;28;20030;-74
2022/06/22 01:34:50;;;;;;;3.83;1.08;;;14.90;94.70;;;;;;5031812;28;20546;-71
2022/06/22 01:37:24;;;;;;;3.33;1.30;;;15.10;94.70;;;;;;5032957;28;20496;-73
2022/06/22 01:39:57;;;;;;;2.97;1.30;;;15.20;94.50;;;;;;5033962;28;20623;-70
2022/06/22 01:43:01;;;;;;;3.17;0.98;;;15.40;94.10;;;;;;5033584;28;20017;-74
2022/06/22 01:45:34;;;;;;;1.70;0.70;;;15.60;93.50;;;;;;5031737;28;20033;-71
2022/06/22 01:48:19;;;;;;;2.55;0.90;;;15.70;93.30;;;;;;5034671;28;20029;-74
2022/06/22 01:50:57;;;;;;;2.70;1.02;;;15.90;92.90;;;;;;5039304;28;20544;-72
2022/06/22 01:53:33;;;;;;;3.08;0.80;;;16.10;92.70;;;;;;5069738;28;20028;-74
2022/06/22 01:56:24;;;;;;;4.38;1.63;;;16.30;92.20;;;;;;5041848;28;20544;-73
2022/06/22 01:59:27;;;;;;;1.95;0.80;;;16.40;92.30;;;;;;5033685;28;20069;-75
2022/06/22 02:02:12;;;;;;;3.25;0.98;;;16.70;92.50;;;;;;5049550;28;20033;-72
2022/06/22 02:04:51;;;;;;;2.90;0.98;;;17.00;92.00;;;;;;5034179;28;20068;-72
2022/06/22 02:07:48;;;;;;;2.03;0.77;;;17.10;91.60;;;;;;5032880;28;20054;-72
2022/06/22 02:10:39;;;;;;;2.40;0.98;;;17.40;91.40;;;;;;5032911;28;20036;-71
2022/06/22 02:13:31;;;;;;;2.35;1.00;;;17.50;90.80;;;;;;5029773;28;20025;-73
2022/06/22 02:16:10;;;;;;;1.20;0.70;;;17.60;90.50;;;;;;5032765;28;20028;-68
2022/06/22 02:18:50;;;;;;;2.63;0.95;;;17.60;90.70;;;;;;5032408;28;20401;-71
2022/06/22 02:21:39;;;;;;;1.67;0.95;;;17.70;90.50;;;;;;5031629;28;20029;-73
2022/06/22 02:24:14;;;;;;;1.80;0.70;;;17.70;90.20;;;;;;5063011;28;20034;-71
2022/06/22 02:26:56;;;;;;;2.08;0.90;;;17.80;91.20;;;;;;5029837;28;20009;-74
2022/06/22 02:29:37;;;;;;;1.88;0.85;;;17.70;90.10;;;;;;5025545;28;20036;-71
2022/06/22 02:32:08;;;;;;;5.55;1.20;;;17.70;90.40;;;;;;5030668;28;20017;-73
2022/06/22 02:34:41;;;;;;;3.43;1.20;;;17.80;90.40;;;;;;5047816;28;20190;-72
2022/06/22 02:37:09;;;;;;;2.92;0.70;;;17.80;90.60;;;;;;5032707;28;20030;-71
2022/06/22 02:39:45;;;;;;;2.45;0.80;;;17.80;90.10;;;;;;5032970;28;20125;-72
2022/06/22 02:45:03;;;;;;;1.67;1.00;;;17.90;89.80;;;;;;5037210;28;20076;-73
2022/06/22 02:47:45;;;;;;;2.17;1.08;;;18.10;88.90;;;;;;5031981;28;20041;-73
2022/06/22 02:50:36;;;;;;;3.95;0.90;;;18.00;87.90;;;;;;5029818;28;20037;-70
2022/06/22 02:53:23;;;;;;;1.42;1.13;;;18.00;87.70;;;;;;5029402;28;20426;-71
2022/06/22 02:55:51;;;;;;;1.83;0.95;;;18.30;90.10;;;;;;5062536;28;20038;-72
2022/06/22 02:58:30;;;;;;;2.90;1.02;;;18.60;87.10;;;;;;5030451;28;20037;-71
2022/06/22 03:01:01;;;;;;;2.70;0.77;;;18.50;87.80;;;;;;5032056;28;20112;-70
2022/06/22 03:03:32;;;;;;;3.97;1.00;;;18.30;87.30;;;;;;5030691;28;20021;-74
2022/06/22 03:06:00;;;;;;;1.85;0.80;;;18.40;87.60;;;;;;5032254;28;20087;-70
2022/06/22 03:08:28;;;;;;;4.00;1.02;;;19.10;87.60;;;;;;5032480;28;20065;-70
2022/06/22 03:11:07;;;;;;;2.10;1.00;;;19.70;86.00;;;;;;5039690;28;20473;-72
2022/06/22 03:13:38;;;;;;;2.22;0.70;;;19.90;83.90;;;;;;5052762;28;20057;-72
2022/06/22 03:16:09;;;;;;;2.25;0.70;;;19.60;81.50;;;;;;5052709;28;20067;-72
2022/06/22 03:18:41;;;;;;;2.33;1.10;;;19.20;81.60;;;;;;5067670;28;20473;-72
2022/06/22 03:21:12;;;;;;;2.03;0.70;;;18.80;81.80;;;;;;5051910;28;20083;-71
2022/06/22 03:24:00;;;;;;;1.70;0.60;;;18.70;83.90;;;;;;5051943;28;20029;-70
2022/06/22 03:26:38;;;;;;;3.58;0.60;;;18.40;84.00;;;;;;5042893;28;20028;-71
2022/06/22 03:29:25;;;;;;;3.13;0.88;;;18.20;85.30;;;;;;5029058;28;20056;-71
2022/06/22 03:32:02;;;;;;;1.50;0.70;;;18.10;85.90;;;;;;5047637;28;20018;-71
2022/06/22 03:34:37;;;;;;;2.55;0.70;;;18.30;86.80;;;;;;5030198;28;20497;-73
2022/06/22 03:37:19;;;;;;;2.30;0.73;;;19.00;85.40;;;;;;5032272;28;20037;-73
2022/06/22 03:39:49;;;;;;;1.70;0.80;;;19.70;83.40;;;;;;5031400;28;20079;-71
2022/06/22 03:42:50;;;;;;;1.50;0.70;;;20.00;82.30;;;;;;5030868;28;20013;-76
2022/06/22 03:45:38;;;;;;;1.20;0.70;;;20.90;79.40;;;;;;5030153;28;20018;-74
2022/06/22 03:48:11;;;;;;;1.98;0.70;;;21.70;75.60;;;;;;5030202;28;20033;-73
2022/06/22 03:50:59;;;;;;;2.13;0.70;;;22.30;75.10;;;;;;5029658;28;20477;-74
2022/06/22 03:53:45;;;;;;;2.20;0.70;;;22.80;73.20;;;;;;5030447;28;20474;-74
2022/06/22 03:56:20;;;;;;;3.72;0.77;;;23.10;72.30;;;;;;5030142;28;20025;-73
2022/06/22 03:58:50;;;;;;;2.70;0.60;;;23.50;70.80;;;;;;5029872;28;20112;-73
2022/06/22 04:01:19;;;;;;;1.90;0.82;;;23.30;70.40;;;;;;5029486;28;20021;-73
2022/06/22 04:03:47;;;;;;;3.60;0.60;;;22.90;69.80;;;;;;5030689;28;20021;-71
2022/06/22 04:06:30;;;;;;;1.27;0.60;;;22.80;70.20;;;;;;5027828;28;20186;-70
2022/06/22 04:08:59;;;;;;;1.90;0.60;;;22.40;70.70;;;;;;5027560;28;20036;-73
2022/06/22 04:11:37;;;;;;;2.33;0.73;;;22.00;71.20;;;;;;5032250;28;20018;-71
2022/06/22 04:14:22;;;;;;;2.22;1.02;;;21.40;71.70;;;;;;5028889;28;20104;-71
2022/06/22 04:17:00;;;;;;;3.25;0.70;;;20.90;73.50;;;;;;5026802;28;20082;-71
2022/06/22 04:19:36;;;;;;;0.93;0.60;;;20.10;73.70;;;;;;5030062;28;20174;-71
2022/06/22 04:22:15;;;;;;;2.92;1.13;;;19.50;75.70;;;;;;5030768;28;20026;-71
2022/06/22 04:24:49;;;;;;;1.92;0.70;;;19.20;76.80;;;;;;5028981;28;20382;-70
2022/06/22 04:27:29;;;;;;;2.85;1.25;;;18.90;77.80;;;;;;5060135;28;20033;-72
2022/06/22 04:30:02;;;;;;;3.80;1.23;;;18.60;78.30;;;;;;5027858;28;20025;-73
2022/06/22 04:32:42;;;;;;;1.30;0.73;;;18.40;78.70;;;;;;5032405;28;20025;-71
2022/06/22 04:35:29;;;;;;;1.60;0.80;;;18.20;78.40;;;;;;5044942;28;20033;-72
2022/06/22 04:38:23;;;;;;;2.00;0.70;;;17.90;78.70;;;;;;5043485;28;20101;-70
2022/06/22 04:41:28;;;;;;;2.85;1.00;;;17.80;79.10;;;;;;5023791;28;20018;-72
2022/06/22 04:44:04;;;;;;;1.45;0.70;;;17.80;79.50;;;;;;5029542;28;20024;-74
2022/06/22 04:46:39;;;;;;;1.70;0.70;;;17.70;79.20;;;;;;5027382;28;20022;-72
2022/06/22 04:49:27;;;;;;;1.90;1.13;;;17.70;80.10;;;;;;5030856;28;20033;-70
2022/06/22 04:52:08;;;;;;;1.63;0.55;;;17.70;79.40;;;;;;5031085;28;20014;-73
2022/06/22 04:54:41;;;;;;;1.60;0.60;;;17.70;81.00;;;;;;5028691;28;20064;-71
2022/06/22 04:57:21;;;;;;;1.58;0.57;;;17.70;80.30;;;;;;5030145;28;20040;-71
2022/06/22 04:59:49;;;;;;;2.63;0.70;;;17.70;81.10;;;;;;5028936;28;20032;-74
2022/06/22 05:02:20;;;;;;;0.65;0.55;;;17.70;80.50;;;;;;5030913;28;20529;-71
2022/06/22 05:04:53;;;;;;;1.58;0.70;;;17.80;80.30;;;;;;5029959;28;20030;-74
2022/06/22 05:07:38;;;;;;;2.05;0.80;;;17.80;79.60;;;;;;5028961;28;20029;-72
2022/06/22 05:10:21;;;;;;;6.00;1.75;;;17.80;81.40;;;;;;5029732;28;20120;-72
2022/06/22 05:13:05;;;;;;;1.95;0.80;;;17.80;81.60;;;;;;5030877;28;20029;-73
2022/06/22 05:15:36;;;;;;;2.97;0.93;;;17.80;80.80;;;;;;5035108;28;20057;-72
2022/06/22 05:18:20;;;;;;;1.63;0.95;;;17.60;80.90;;;;;;5039094;28;20030;-74
2022/06/22 05:21:07;;;;;;;6.82;0.80;;;17.60;81.50;;;;;;5038512;28;20104;-75
2022/06/22 05:23:44;;;;;;;4.28;0.80;;;17.70;82.40;;;;;;5029033;28;20068;-74
2022/06/22 05:26:13;;;;;;;5.20;1.00;;;17.70;83.00;;;;;;5033668;28;20417;-70
2022/06/22 05:28:50;;;;;;;2.80;0.73;;;17.90;83.10;;;;;;5032977;28;20449;-71
2022/06/22 05:31:30;;;;;;;2.47;0.70;;;17.90;81.70;;;;;;5029485;28;20036;-73
2022/06/22 05:34:05;;;;;;;1.80;0.73;;;18.00;81.20;;;;;;5031344;28;20017;-72
2022/06/22 05:36:39;;;;;;;1.42;0.60;;;18.20;80.20;;;;;;5030777;28;20060;-72
2022/06/22 05:39:07;;;;;;;1.35;0.50;;;18.40;79.90;;;;;;5046945;28;20033;-74
2022/06/22 05:41:41;;;;;;;2.53;0.70;;;18.70;80.30;;;;;;5028036;28;20104;-71
2022/06/22 05:44:13;;;;;;;1.52;0.60;;;18.80;80.30;;;;;;5038611;28;20311;-73
2022/06/22 05:46:46;;;;;;;4.60;0.93;;;18.80;80.20;;;;;;5052678;28;20029;-72
2022/06/22 05:49:18;;;;;;;2.72;0.65;;;18.80;80.90;;;;;;5054473;28;20033;-74
2022/06/22 05:52:00;;;;;;;1.35;0.70;;;18.70;80.80;;;;;;5047363;28;20025;-71
2022/06/22 05:55:05;;;;;;;1.60;0.60;;;18.70;80.40;;;;;;5039951;28;20092;-73
2022/06/22 05:57:55;;;;;;;3.22;0.60;;;18.70;81.90;;;;;;5033095;28;20087;-72
2022/06/22 06:00:29;;;;;;;2.08;0.95;;;18.80;80.10;;;;;;5024180;28;20030;-73
2022/06/22 06:02:59;;;;;;;3.38;0.90;;;19.10;79.90;;;;;;5053136;28;20106;-72
2022/06/22 06:05:50;;;;;;;1.70;0.93;;;19.20;79.20;;;;;;5044048;28;20104;-72
2022/06/22 06:08:37;;;;;;;2.50;1.05;;;19.50;79.70;;;;;;5043951;28;20180;-76
2022/06/22 06:11:10;;;;;;;4.28;0.60;;;19.80;79.90;;;;;;5034879;28;20454;-73
2022/06/22 06:13:42;;;;;;;4.95;1.00;;;20.00;80.90;;;;;;5051795;28;20060;-76
2022/06/22 06:16:25;;;;;;;4.47;1.15;;;19.80;80.50;;;;;;5053428;28;20021;-74
2022/06/22 06:19:00;;;;;;;4.72;2.05;;;19.50;82.70;;;;;;5049490;28;20040;-71
2022/06/22 06:21:34;;;;;;;3.35;1.02;;;19.20;84.20;;;;;;5043257;28;20601;-74
2022/06/22 06:24:27;;;;;;;2.58;0.85;;;18.90;86.10;;;;;;5068793;28;20036;-74
2022/06/22 06:30:07;;;;;;;6.15;1.73;;;18.20;87.40;;;;;;5042510;28;20103;-71
2022/06/22 06:32:58;;;;;;;6.22;1.80;;;17.80;89.80;;;;;;5053452;28;20024;-73
2022/06/22 06:35:31;;;;;;;5.47;1.50;;;17.50;90.30;;;;;;5037642;28;20029;-70
2022/06/22 06:38:21;;;;;;;7.03;1.73;;;17.20;90.60;;;;;;5036620;28;20398;-73
2022/06/22 06:41:10;;;;;;;3.88;1.40;;;16.90;90.60;;;;;;5037921;28;20021;-71
2022/06/22 06:43:46;;;;;;;6.45;2.33;;;16.60;91.30;;;;;;5050311;28;20076;-73
2022/06/22 06:46:40;;;;;;;4.35;1.40;;;16.30;91.70;;;;;;5035104;28;20031;-72
2022/06/22 06:49:38;;;;;;;4.97;1.70;;;16.10;92.00;;;;;;5034090;28;20061;-74
2022/06/22 06:52:26;;;;;;;4.93;1.73;;;15.80;92.60;;;;;;5041249;28;20025;-74
2022/06/22 06:55:04;;;;;;;4.57;1.58;;;15.60;93.00;;;;;;5053475;28;20041;-72
2022/06/22 06:57:35;;;;;;;6.60;1.70;;;15.50;93.30;;;;;;5052806;28;20035;-74
2022/06/22 07:00:07;;;;;;;3.40;1.40;;;15.30;93.80;;;;;;5041670;28;20034;-75
2022/06/22 07:02:40;;;;;;;5.30;1.52;;;15.10;94.30;;;;;;5034904;28;20027;-74
2022/06/22 07:05:17;;;;;;;3.75;1.50;;;15.00;94.50;;;;;;5035245;28;20030;-75
2022/06/22 07:07:59;;;;;;;4.00;1.50;;;14.80;94.70;;;;;;5039405;28;20540;-74
2022/06/22 07:11:02;;;;;;;5.32;1.75;;;14.70;95.00;;;;;;5036700;28;20099;-74
2022/06/22 07:13:42;;;;;;;6.07;1.73;;;14.50;95.40;;;;;;5035171;28;20037;-73
2022/06/22 07:16:18;;;;;;;5.47;2.60;;;14.40;95.80;;;;;;5052298;28;20127;-74
2022/06/22 07:19:01;;;;;;;5.90;1.70;;;14.30;96.10;;;;;;5051891;28;20561;-72
2022/06/22 07:22:07;;;;;;;4.68;1.77;;;14.30;96.40;;;;;;5032789;28;20018;-74
2022/06/22 07:24:47;;;;;;;5.38;2.30;;;14.20;96.80;;;;;;5013704;28;20025;-74
2022/06/22 07:28:02;;;;;;;5.10;2.65;;;14.10;96.90;;;;;;5034493;28;20025;-72
2022/06/22 07:31:02;;;;;;;7.45;3.97;;;14.00;97.30;;;;;;5036979;28;20175;-73
2022/06/22 07:33:54;;;;;;;9.73;4.30;;;13.90;97.50;;;;;;5032067;28;20045;-69
2022/06/22 07:36:55;;;;;;;7.60;3.13;;;13.80;98.00;;;;;;5046643;28;20692;-71
2022/06/22 07:39:47;;;;;;;10.20;2.95;;;13.80;98.50;;;;;;5051631;28;20424;-71
2022/06/22 07:42:14;;;;;;;9.20;3.40;;;13.70;98.50;;;;;;5050021;28;20120;-72
2022/06/22 07:44:44;;;;;;;7.72;3.20;;;13.60;98.70;;;;;;5051846;28;20025;-75
2022/06/22 07:47:17;;;;;;;6.60;2.92;;;13.60;98.70;;;;;;5052109;28;20029;-71
2022/06/22 07:50:04;;;;;;;11.10;3.60;;;13.50;98.70;;;;;;5048025;28;20041;-70
2022/06/22 07:52:42;;;;;;;8.57;4.75;;;13.40;99.00;;;;;;5031778;28;20018;-70
2022/06/22 07:55:31;;;;;;;6.18;3.70;;;13.40;99.10;;;;;;5038471;28;20493;-72
2022/06/22 07:58:25;;;;;;;11.18;4.78;;;13.30;99.50;;;;;;5051318;28;20079;-70
2022/06/22 08:01:01;;;;;;;9.55;3.83;;;13.30;99.80;;;;;;5032397;28;20025;-71
2022/06/22 08:03:39;;;;;;;9.00;4.20;;;13.30;99.90;;;;;;5041476;28;20032;-71
2022/06/22 08:06:10;;;;;;;8.57;4.30;;;13.30;99.90;;;;;;5050304;28;20474;-73
2022/06/22 08:08:46;;;;;;;10.88;4.80;;;13.20;99.90;;;;;;5050009;28;20210;-76
2022/06/22 08:11:45;;;;;;;9.48;5.35;;;13.10;99.90;;;;;;5027184;28;20033;-70
2022/06/22 08:14:25;;;;;;;10.25;4.60;;;13.10;99.90;;;;;;5022651;28;20057;-74
2022/06/22 08:16:58;;;;;;;7.28;4.00;;;13.00;99.90;;;;;;5032681;28;20069;-69
2022/06/22 08:19:28;;;;;;;13.05;5.55;;;13.00;99.90;;;;;;5035693;28;20029;-69
2022/06/22 08:22:01;;;;;;;11.82;4.85;;;12.90;99.90;;;;;;5011660;28;20018;-70
2022/06/22 08:24:29;;;;;;;;;;;12.90;99.90;;;;;;5039823;28;20060;-71
2022/06/22 08:26:58;;;;;;;10.13;4.30;;;12.90;99.90;;;;;;5041461;28;19912;-72
2022/06/22 08:29:27;;;;;;;10.57;4.40;;;12.80;99.90;;;;;;5043456;28;20044;-71
2022/06/22 08:32:02;;;;;;;9.30;4.75;;;12.80;99.90;;;;;;5010951;28;20018;-70
2022/06/22 08:34:45;;;;;;;11.70;5.25;;;12.70;99.90;;;;;;5022558;28;20027;-70
2022/06/22 08:37:27;;;;;;;7.68;4.65;;;12.60;99.90;;;;;;5051465;28;20032;-70
2022/06/22 08:40:12;;;;;;;13.48;6.85;;;12.50;99.90;;;;;;5055161;28;20025;-73
2022/06/22 08:42:40;;;;;;;13.27;5.90;;;12.50;99.90;;;;;;5027438;28;20026;-70
2022/06/22 08:45:41;;;;;;;11.38;5.57;;;12.50;99.90;;;;;;5030999;28;20028;-70
2022/06/22 08:48:41;;;;;;;13.18;8.10;;;12.40;99.90;;;;;;5030613;28;20143;-70
2022/06/22 08:51:15;;;;;;;9.60;5.28;;;12.40;99.90;;;;;;5024645;28;20026;-71
2022/06/22 08:54:27;;;;;;;14.82;7.13;;;12.40;99.90;;;;;;5030948;28;20026;-72
2022/06/22 08:57:17;;;;;;;11.52;6.35;;;12.30;99.90;;;;;;5045822;28;20033;-70
2022/06/22 09:00:05;;;;;;;12.95;6.93;;;12.30;99.90;;;;;;5032284;28;20397;-70
2022/06/22 09:02:43;;;;;;;14.93;7.63;;;12.30;99.90;;;;;;5017613;28;20064;-70
2022/06/22 09:05:43;;;;;;;19.45;7.68;;;12.20;99.90;;;;;;5050742;28;20025;-70
2022/06/22 09:08:44;;;;;;;17.65;7.07;;;12.20;99.90;;;;;;5050243;28;20047;-70
2022/06/22 09:11:29;;;;;;;13.88;7.22;;;12.20;99.90;;;;;;5032616;28;20088;-71
2022/06/22 09:14:00;;;;;;;14.60;7.47;;;12.10;99.90;;;;;;5030766;28;20022;-70
2022/06/22 09:17:07;;;;;;;14.07;7.57;;;12.10;99.90;;;;;;5029181;28;20029;-69
2022/06/22 09:20:01;;;;;;;15.85;7.57;;;12.00;99.90;;;;;;5030351;28;20478;-70
2022/06/22 09:23:11;;;;;;;15.55;8.00;;;11.90;99.90;;;;;;5034381;28;20017;-70
2022/06/22 09:26:12;;;;;;;15.30;8.10;;;11.90;99.90;;;;;;5034256;28;20474;-69
2022/06/22 09:29:00;;;;;;;15.80;8.43;;;11.90;99.90;;;;;;5033384;28;20048;-69
2022/06/22 09:31:46;;;;;;;13.55;7.32;;;11.80;99.90;;;;;;5047897;28;20047;-70
2022/06/22 09:34:50;;;;;;;17.48;7.70;;;11.80;99.90;;;;;;5054796;28;20092;-69
2022/06/22 09:37:54;;;;;;;18.23;8.73;;;11.80;99.90;;;;;;5054819;28;20025;-70
2022/06/22 09:40:27;;;;;;;17.83;9.52;;;11.80;99.90;;;;;;5042908;28;20100;-70
2022/06/22 09:43:08;;;;;;;13.88;8.15;;;11.80;99.90;;;;;;5053900;28;20021;-70
2022/06/22 09:45:59;;;;;;;15.00;7.97;;;11.70;99.90;;;;;;5053409;28;20017;-71
2022/06/22 09:48:34;;;;;;;13.88;8.15;;;11.70;99.90;;;;;;5053511;28;20375;-69
2022/06/22 09:51:22;;;;;;;13.27;8.40;;;11.70;99.90;;;;;;5039163;28;20094;-70
2022/06/22 09:54:05;;;;;;;14.10;9.00;;;11.60;99.90;;;;;;5052686;28;20128;-71
2022/06/22 09:57:00;;;;;;;16.73;8.93;;;11.60;99.90;;;;;;5054134;28;20029;-70
2022/06/22 09:59:28;;;;;;;19.92;10.95;;;11.60;99.90;;;;;;5046541;28;20679;-73
2022/06/22 10:02:24;;;;;;;20.65;10.43;;;11.60;99.90;;;;;;5036503;28;20033;-70
2022/06/22 10:04:58;;;;;;;18.38;9.88;;;11.50;99.90;;;;;;5052937;28;20037;-71
2022/06/22 10:07:52;;;;;;;18.73;10.50;;;11.40;99.90;;;;;;5051916;28;20025;-73
2022/06/22 10:10:59;;;;;;;19.10;10.15;;;11.40;99.90;;;;;;5050974;28;20040;-70
2022/06/22 10:13:39;;;;;;;15.25;8.50;;;11.40;99.90;;;;;;5012885;28;20022;-70
2022/06/22 10:16:28;;;;;;;14.60;9.02;;;11.30;99.90;;;;;;5012392;28;20022;-72
2022/06/22 10:19:02;;;;;;;14.68;8.52;;;11.30;99.90;;;;;;5035325;28;20080;-71
2022/06/22 10:21:39;;;;;;;16.75;9.27;;;11.30;99.90;;;;;;5035988;28;20136;-71
2022/06/22 10:24:19;;;;;;;17.55;8.52;;;11.30;99.90;;;;;;5047112;28;20017;-73
2022/06/22 10:27:07;;;;;;;12.32;7.38;;;11.30;99.90;;;;;;5051407;28;20017;-69
2022/06/22 10:29:52;;;;;;;13.68;7.38;;;11.20;99.90;;;;;;5042960;28;20041;-70
2022/06/22 10:32:58;;;;;;;17.15;9.20;;;11.20;99.90;;;;;;5045183;28;20530;-69
2022/06/22 10:35:25;;;;;;;15.57;8.77;;;11.20;99.90;;;;;;5052378;28;20048;-69
2022/06/22 10:38:29;;;;;;;13.93;8.85;;;11.20;99.90;;;;;;5050993;28;20052;-69
2022/06/22 10:47:01;;;;;;;13.02;8.57;;;11.00;99.90;;;;;;5053126;28;20408;-70
2022/06/22 10:49:57;;;;;;;12.98;8.25;;;11.00;99.90;;;;;;5053442;28;20029;-70
2022/06/22 10:53:01;;;;;;;18.13;10.02;;;11.00;99.90;;;;;;5051908;28;20474;-69
2022/06/22 10:55:39;;;;;;;17.30;10.85;;;10.90;99.90;;;;;;5013407;28;20054;-68
2022/06/22 10:58:28;;;;;;;18.42;11.18;;;11.00;99.90;;;;;;5013441;28;20014;-70
2022/06/22 11:01:19;;;;;;;14.50;9.23;;;10.90;99.90;;;;;;5013300;28;20029;-72
2022/06/22 11:03:52;;;;;;;16.85;9.77;;;10.90;99.90;;;;;;5047636;28;20059;-69
2022/06/22 11:06:25;;;;;;;13.98;9.52;;;10.80;99.90;;;;;;5052938;28;20021;-70
2022/06/22 11:09:16;;;;;;;13.95;9.40;;;10.80;99.90;;;;;;5052783;28;20029;-71
2022/06/22 11:12:07;;;;;;;19.25;12.10;;;10.80;99.90;;;;;;5067734;28;20432;-71
2022/06/22 11:14:59;;;;;;;17.40;11.93;;;10.80;99.90;;;;;;5052514;28;20550;-71
2022/06/22 11:17:48;;;;;;;18.00;10.88;;;10.80;99.90;;;;;;5053052;28;20388;-69
2022/06/22 11:20:43;;;;;;;17.05;10.10;;;10.60;99.90;;;;;;5053281;28;20595;-69
2022/06/22 11:23:16;;;;;;;15.18;10.13;;;10.70;99.90;;;;;;5051902;28;20025;-70
2022/06/22 11:32:29;;;;;;;19.10;11.50;;;10.60;99.90;;;;;;5036026;28;20037;-69
2022/06/22 11:35:29;;;;;;;19.15;11.05;;;10.60;99.90;;;;;;5030630;28;20071;-69
2022/06/22 11:38:13;;;;;;;17.08;10.00;;;10.50;99.90;;;;;;5031518;28;20028;-70
2022/06/22 11:41:01;;;;;;;12.45;9.13;;;10.50;99.90;;;;;;5030545;28;20560;-69
2022/06/22 11:44:05;;;;;;;17.75;9.70;;;10.60;99.90;;;;;;5035442;28;20098;-69
2022/06/22 11:46:48;;;;;;;15.60;9.57;;;10.50;99.90;;;;;;5029646;28;20494;-71
2022/06/22 11:49:18;;;;;;;16.17;10.05;;;10.40;99.90;;;;;;5029559;28;20034;-69
2022/06/22 11:52:03;;;;;;;15.70;9.90;;;10.40;99.90;;;;;;5031215;28;20024;-69
2022/06/22 11:54:52;;;;;;;15.43;9.52;;;10.40;99.90;;;;;;5027493;28;20080;-71
2022/06/22 11:57:25;;;;;;;21.17;9.93;;;10.40;99.90;;;;;;5031225;28;20065;-69
2022/06/22 11:59:58;;;;;;;15.73;10.18;;;10.40;99.90;;;;;;5029318;28;20049;-69
2022/06/22 12:02:38;;;;;;;12.65;9.25;;;10.40;99.90;;;;;;5031606;28;20486;-69
2022/06/22 12:05:16;;;;;;;14.82;9.68;;;10.30;99.90;;;;;;5029824;28;20037;-70
2022/06/22 12:08:05;;;;;;;14.52;9.73;;;10.30;99.90;;;;;;5030805;28;20052;-69
2022/06/22 12:10:32;;;;;;;16.55;9.75;;;10.30;99.90;;;;;;5030762;28;20048;-71
2022/06/22 12:15:04;;;;;;;20.40;12.38;;;10.30;99.90;;;;;;5031939;28;20096;-71
2022/06/22 12:16:46;;;;;;;20.90;11.50;;;10.20;99.90;;;;;;5028264;28;20095;-70
2022/06/22 12:19:38;;;;;;;19.38;11.65;;;10.10;99.90;;;;;;5030894;28;20021;-70
2022/06/22 12:22:17;;;;;;;17.83;10.38;;;10.10;99.90;;;;;;5062098;28;20030;-68
2022/06/22 12:25:03;;;;;;;16.88;10.07;;;10.10;99.90;;;;;;5030061;28;20042;-69
2022/06/22 12:27:49;;;;;;;16.30;10.88;;;10.10;99.90;;;;;;5028341;28;20385;-68
2022/06/22 12:30:51;;;;;;;12.95;10.05;;;10.20;99.90;;;;;;5030883;28;20507;-70
2022/06/22 12:33:36;;;;;;;16.77;9.38;;;10.10;99.90;;;;;;5028679;28;20041;-68
2022/06/22 12:36:18;;;;;;;15.45;9.60;;;10.10;99.90;;;;;;5030106;28;20497;-69
2022/06/22 12:38:51;;;;;;;14.07;9.63;;;10.10;99.90;;;;;;5031219;28;20037;-69
2022/06/22 12:41:45;;;;;;;11.95;8.07;;;10.20;99.90;;;;;;5030521;28;20436;-70
2022/06/22 12:44:48;;;;;;;11.95;7.80;;;10.10;99.90;;;;;;5030900;28;20053;-72
2022/06/22 12:47:28;;;;;;;12.55;7.35;;;10.10;99.90;;;;;;5028713;28;20027;-69
2022/06/22 12:50:29;;;;;;;11.20;7.45;;;10.00;99.90;;;;;;5027060;28;20069;-70
2022/06/22 12:53:11;;;;;;;8.93;6.70;;;10.00;99.90;;;;;;5027834;28;20025;-69
2022/06/22 12:56:04;;;;;;;10.47;6.20;;;10.00;99.90;;;;;;5029131;28;20037;-68
2022/06/22 12:58:43;;;;;;;10.30;5.78;;;10.00;99.90;;;;;;5028214;28;20841;-69
2022/06/22 13:01:10;;;;;;;10.95;6.18;;;9.90;99.90;;;;;;5031799;28;20029;-70
2022/06/22 13:03:49;;;;;;;7.97;5.13;;;9.90;99.90;;;;;;5042597;28;20477;-75
2022/06/22 13:06:16;;;;;;;9.88;5.20;;;9.80;99.90;;;;;;5032847;28;20052;-70
2022/06/22 13:08:45;;;;;;;9.18;5.53;;;9.90;99.90;;;;;;5033920;28;20478;-71
2022/06/22 13:11:20;;;;;;;8.82;4.95;;;9.90;99.90;;;;;;5034876;28;20031;-71
2022/06/22 13:13:52;;;;;;;8.77;5.85;;;9.80;99.90;;;;;;5034606;28;20025;-68
2022/06/22 13:16:37;;;;;;;11.80;6.35;;;9.90;99.90;;;;;;5041320;28;20028;-69
2022/06/22 13:19:24;;;;;;;8.45;5.05;;;9.80;99.90;;;;;;5055315;28;20450;-68
2022/06/22 13:21:55;;;;;;;8.15;5.78;;;9.80;99.90;;;;;;5055282;28;20071;-69
2022/06/22 13:24:50;;;;;;;8.63;6.22;;;9.80;99.90;;;;;;5055388;28;20075;-69
2022/06/22 13:27:31;;;;;;;11.27;5.85;;;9.80;99.90;;;;;;5055284;28;20049;-68
2022/06/22 13:30:22;;;;;;;7.85;4.82;;;9.80;99.90;;;;;;5055019;28;20025;-70
2022/06/22 13:33:09;;;;;;;10.18;5.70;;;9.70;99.90;;;;;;5069925;28;20071;-68
2022/06/22 13:35:44;;;;;;;8.68;5.95;;;9.80;99.90;;;;;;5028235;28;20037;-69
2022/06/22 13:38:27;;;;;;;8.95;5.50;;;9.80;99.90;;;;;;5034328;28;20082;-68
2022/06/22 13:40:54;;;;;;;9.95;5.78;;;9.70;99.90;;;;;;5035892;28;20104;-68
2022/06/22 13:43:28;;;;;;;8.57;4.75;;;9.80;99.90;;;;;;5034450;28;20013;-71
2022/06/22 13:46:07;;;;;;;11.07;5.47;;;9.70;99.90;;;;;;5036117;28;20079;-68
2022/06/22 13:48:44;;;;;;;9.75;5.85;;;9.70;99.90;;;;;;5033582;28;20044;-70
2022/06/22 13:51:22;;;;;;;9.30;5.53;;;9.70;99.90;;;;;;5050387;28;20500;-71
2022/06/22 13:54:16;;;;;;;9.15;5.40;;;9.80;99.90;;;;;;5034714;28;20498;-69
2022/06/22 13:57:08;;;;;;;11.02;5.78;;;9.70;99.90;;;;;;5034469;28;20021;-70
2022/06/22 13:59:58;;;;;;;8.57;5.30;;;9.70;99.90;;;;;;5034472;28;20026;-70
2022/06/22 14:03:02;;;;;;;10.45;5.35;;;9.70;99.90;;;;;;5053274;28;20036;-69
2022/06/22 14:05:36;;;;;;;10.77;5.28;;;9.70;99.90;;;;;;5054084;28;20032;-70
2022/06/22 14:08:21;;;;;;;10.30;6.00;;;9.70;99.90;;;;;;5054053;28;20124;-70
2022/06/22 14:10:58;;;;;;;8.25;5.00;;;9.60;99.90;;;;;;5054121;28;21698;-69
2022/06/22 14:13:34;;;;;;;7.85;5.22;;;9.60;99.90;;;;;;5054158;28;20052;-70
2022/06/22 14:16:06;;;;;;;10.85;5.53;;;9.60;99.90;;;;;;5053932;28;20025;-71
2022/06/22 14:19:04;;;;;;;10.05;5.72;;;9.60;99.90;;;;;;5053906;28;20021;-69
2022/06/22 14:21:44;;;;;;;10.48;5.00;;;9.60;99.90;;;;;;5054157;28;20529;-68